Latest Coastal Weather Observations for Adelaide Airport

IDS60701

Issued at 5:31 pm CST Tuesday 24 May 2016 (issued every 10 minutes, with the page automatically refreshed every 10 minutes)

About coastal observations | Map of coastal stations | Coastal observations for SA | Marine services | Other Formats
Station Details ID: 023034 Name: ADELAIDE AIRPORT Lat: -34.95 Lon: 138.52 Height: 2.0 m
Data from the previous 72 hours. | See also: Recent months at Adelaide Airport
Date/Time
CST
Temp

°C
Wind Pressure Rain
since 9am
mm
Weather Cloud Vis
km
Sea
Height
m
Swell
Dir
 
Speed
knots
Gust
knots
hPa Trend Height
m
Period
s
Dir
24/05:00pm 17.9 NNE 3 4 1016.6 - 0.0 - - 10 - - - -
24/04:30pm 19.1 NNW 5 7 1016.9 - 0.0 - - 10 - - - -
24/04:00pm 19.4 NW 7 8 1017.1 - 0.0 - - 10 - - - -
24/03:30pm 19.4 NW 9 13 1017.4 - 0.0 - - 10 - - - -
24/03:00pm 20.2 WNW 7 11 1017.5 F 0.0 Fine Partly cloudy 35 - - - -
24/02:30pm 20.2 NNW 9 15 1018.0 - 0.0 - - 10 - - - -
24/02:00pm 20.4 N 10 14 1018.2 - 0.0 - Mostly clear 10 - - - -
24/01:30pm 19.8 N 11 17 1018.6 - 0.0 - Mostly clear 10 - - - -
24/01:00pm 19.7 N 10 14 1019.4 - 0.0 - Mostly clear 10 - - - -
24/12:30pm 19.7 N 11 15 1019.9 - 0.0 - Mostly clear 10 - - - -
24/12:00pm 18.8 NNE 10 15 1020.7 F 0.0 Fine Mostly clear 30 - - - -
24/11:30am 17.7 N 10 14 1021.4 - 0.0 - Mostly clear 10 - - - -
24/11:00am 17.7 N 9 11 1022.4 - 0.0 - Mostly clear 10 - - - -
24/10:30am 16.7 NNE 8 11 1022.9 - 0.0 - Mostly clear 10 - - - -
24/10:00am 16.0 NE 8 10 1023.2 - 0.0 - Mostly clear 10 - - - -
24/09:30am 15.1 NE 8 10 1023.4 - 0.0 - Mostly clear 10 - - - -
24/09:00am 14.5 NE 7 9 1023.5 R 0.6 Haze Mostly clear 25 - - - -
24/08:30am 13.6 NE 5 6 1023.5 - 0.6 - Mostly clear 10 - - - -
24/08:11am 12.0 NE 5 6 1023.5 - 0.6 - Mostly clear 10 - - - -
24/08:00am 11.1 NE 5 5 1023.3 - 0.6 Shallow fog Mostly clear 10 - - - -
24/07:30am 9.5 E 3 4 1023.3 - 0.6 - Mostly clear 10 - - - -
24/07:26am 9.7 ENE 4 4 1023.3 - 0.6 Shallow fog Mostly clear 10 - - - -
24/07:00am 10.3 NE 7 7 1022.9 - 0.4 - Mostly clear 10 - - - -
24/06:30am 10.8 NNE 7 8 1022.6 - 0.4 - Mostly clear 10 - - - -
24/06:00am 10.0 NE 5 6 1022.3 F 0.4 Fine Mostly cloudy 20 - - - -
24/05:30am 10.2 NE 7 7 1022.1 - 0.4 - Mostly clear 10 - - - -
24/05:00am 10.3 NE 6 6 1022.3 - 0.4 - Mostly clear 10 - - - -
24/04:30am 10.5 ENE 4 5 1022.3 - 0.4 - Mostly clear 10 - - - -
24/04:00am 10.9 NE 7 7 1022.3 - 0.4 - Mostly clear 10 - - - -
24/03:30am 10.7 NNE 7 7 1022.3 - 0.4 - Mostly clear 10 - - - -
24/03:00am 10.7 ENE 5 6 1022.2 F 0.4 Shallow fog Mostly cloudy 15 - - - -
24/02:30am 11.0 ENE 4 4 1022.7 - 0.4 - Mostly clear 10 - - - -
24/02:00am 11.6 NE 6 7 1022.9 - 0.4 Shallow fog Mostly clear 10 - - - -
24/01:30am 12.0 NE 7 8 1023.2 - 0.4 - Mostly clear 10 - - - -
24/01:00am 11.7 NE 8 9 1023.2 - 0.4 Shallow fog Mostly clear 10 - - - -
24/12:30am 11.9 NNE 5 7 1023.6 - 0.4 - Mostly clear 10 - - - -
24/12:00am 11.9 NNE 3 4 1023.6 F 0.4 Shallow fog Mostly cloudy 15 - - - -
 
Date/Time
CST
Temp

°C
Wind Pressure Rain
since 9am
mm
Weather Cloud Vis
km
Sea
Height
m
Swell
Dir
 
Speed
knots
Gust
knots
hPa Trend Height
m
Period
s
Dir
23/11:30pm 12.2 NE 3 5 1023.6 - 0.4 - Mostly clear 10 - - - -
23/11:00pm 11.7 ENE 5 5 1023.6 - 0.4 - Mostly clear 10 - - - -
23/10:30pm 13.4 NNE 4 5 1023.7 - 0.4 - Mostly clear 10 - - - -
23/10:00pm 15.4 W 6 8 1024.0 - 0.4 - Mostly clear 10 - - - -
23/09:30pm 15.3 WSW 8 10 1024.3 - 0.4 - Mostly clear 10 - - - -
23/09:00pm 15.5 W 9 10 1024.4 R 0.4 Fine Mostly clear 25 - - - -
23/08:30pm 15.8 W 9 11 1024.3 - 0.4 - Mostly clear 10 - - - -
23/08:00pm 15.8 WNW 6 7 1024.2 - 0.4 - Mostly clear 10 - - - -
23/07:30pm 15.7 W 4 11 1024.0 - 0.0 - Mostly clear 8 - - - -
23/07:00pm 15.7 W 3 5 1023.7 - 0.0 - Mostly clear 10 - - - -
23/06:30pm 15.7 WSW 4 5 1023.5 - 0.0 - Mostly clear 10 - - - -
23/06:00pm 15.8 WSW 4 4 1023.1 R 0.0 Haze Partly cloudy 25 - - - -
23/05:30pm 16.2 SW 4 5 1022.9 - 0.0 - Mostly clear 10 - - - -
23/05:00pm 16.9 SW 5 6 1022.8 - 0.0 - Mostly clear 10 - - - -
23/04:30pm 17.2 SW 5 7 1022.6 - 0.0 - Mostly clear 10 - - - -
23/04:00pm 18.1 W 8 10 1022.4 - 0.0 - Mostly clear 10 - - - -
23/03:30pm 18.4 WNW 7 10 1022.4 - 0.0 - Mostly clear 10 - - - -
23/03:00pm 18.3 WNW 8 11 1022.4 R 0.0 Haze Partly cloudy 25 - - - -
23/02:30pm 18.0 NW 8 12 1022.4 - 0.0 - Mostly clear 10 - - - -
23/02:00pm 18.0 WNW 10 13 1022.5 - 0.0 - Mostly clear 10 - - - -
23/01:30pm 18.1 WNW 11 14 1022.4 - 0.0 - Mostly clear 10 - - - -
23/01:00pm 18.5 WNW 12 15 1022.5 - 0.0 - Mostly clear 10 - - - -
23/12:30pm 18.1 W 12 15 1022.6 - 0.0 - Mostly clear 10 - - - -
23/12:00pm 17.9 WNW 13 17 1022.8 R 0.0 Haze Mostly clear 25 - - - -
23/11:30am 17.8 WNW 13 16 1023.1 - 0.0 - Mostly clear 10 - - - -
23/11:00am 17.8 WNW 13 18 1023.5 - 0.0 - Mostly clear 10 - - - -
23/10:30am 17.0 WNW 13 16 1023.5 - 0.0 - Mostly clear 10 - - - -
23/10:00am 16.9 WNW 13 17 1023.5 - 0.0 - Mostly clear 10 - - - -
23/09:30am 16.7 WNW 14 17 1023.2 - 0.0 - Mostly clear 10 - - - -
23/09:00am 16.7 WNW 12 17 1023.1 R 3.8 Haze Partly cloudy 20 - - - -
23/08:30am 16.0 WNW 11 15 1022.9 - 3.8 - Mostly clear 10 - - - -
23/08:00am 15.5 W 13 17 1022.6 - 3.8 - Mostly clear 10 - - - -
23/07:30am 15.0 W 13 18 1022.3 - 3.8 - Mostly clear 10 - - - -
23/07:00am 14.8 W 14 18 1022.0 - 3.8 - Mostly clear 10 - - - -
23/06:30am 14.6 W 15 18 1021.4 - 3.8 - Mostly clear 10 - - - -
23/06:00am 14.9 W 14 18 1021.1 R 3.8 Fine Mostly clear 25 - - - -
23/05:30am 14.9 W 17 21 1020.9 - 3.8 - Mostly clear 10 - - - -
23/05:25am 14.9 W 18 28 1020.8 - 3.8 - Mostly clear 10 - - - -
23/05:00am 14.8 W 19 25 1020.6 - 3.8 - Mostly clear 10 - - - -
23/04:30am 14.8 W 17 22 1020.2 - 3.8 - Mostly clear 10 - - - -
23/04:00am 14.8 W 16 21 1020.0 - 3.8 - Mostly clear 10 - - - -
23/03:30am 14.8 W 18 24 1019.9 - 3.8 - Mostly clear 10 - - - -
23/03:00am 14.7 W 19 23 1019.6 R 3.8 Fine Mostly clear 25 - - - -
23/02:30am 14.8 W 19 24 1019.5 - 3.8 - Mostly clear 10 - - - -
23/02:00am 14.7 W 19 25 1019.0 - 3.8 - Mostly clear 10 - - - -
23/01:30am 14.7 W 20 27 1018.7 - 3.8 - Partly cloudy 10 - - - -
23/01:00am 15.0 WNW 19 26 1018.6 - 3.8 - Partly cloudy 10 - - - -
23/12:30am 14.7 W 22 29 1018.3 - 3.8 - Mostly clear 10 - - - -
23/12:08am 14.1 WNW 19 29 1017.9 - 3.8 - Mostly clear 10 - - - -
23/12:00am 13.8 WNW 18 24 1017.8 R 3.8 Recent precip. Mostly clear 30 - - - -
 
Date/Time
CST
Temp

°C
Wind Pressure Rain
since 9am
mm
Weather Cloud Vis
km
Sea
Height
m
Swell
Dir
 
Speed
knots
Gust
knots
hPa Trend Height
m
Period
s
Dir
22/11:39pm 12.4 WNW 19 27 1017.7 - 3.8 - Mostly clear 10 - - - -
22/11:30pm 12.4 WNW 30 45 1017.7 - 3.8 - Mostly clear 10 - - - -
22/11:19pm 12.5 W 25 41 1017.7 - 3.4 Showers Partly cloudy 5 - - - -
22/11:00pm 15.7 WNW 23 34 1016.8 - 3.0 - Mostly clear 10 - - - -
22/10:31pm 15.5 WNW 21 31 1016.6 - 3.0 - Mostly clear 10 - - - -
22/10:30pm 15.6 WNW 21 28 1016.6 - 3.0 - Mostly clear 10 - - - -
22/10:00pm 15.6 WNW 23 30 1016.1 - 3.0 - Mostly clear 10 - - - -
22/09:42pm 15.6 WNW 20 31 1015.7 - 3.0 - Mostly clear 10 - - - -
22/09:30pm 15.7 WNW 20 27 1015.5 - 3.0 - Mostly clear 10 - - - -
22/09:00pm 16.0 WNW 18 23 1015.1 R 3.0 Lightning Mostly clear 25 - - - -
22/08:30pm 16.2 WNW 21 29 1014.9 - 3.0 - Mostly clear 10 - - - -
22/08:00pm 16.3 WNW 19 26 1014.8 - 3.0 - Partly cloudy 10 - - - -
22/07:30pm 16.4 WNW 20 29 1014.1 - 3.0 - Mostly clear 10 - - - -
22/07:24pm 16.3 WNW 16 29 1014.1 - 3.0 - Mostly clear 10 - - - -
22/07:00pm 16.5 WNW 17 25 1013.7 - 3.0 - Mostly clear 10 - - - -
22/06:54pm 16.5 WNW 15 25 1013.7 - 3.0 - Mostly clear 10 - - - -
22/06:30pm 16.2 WNW 11 16 1013.1 - 2.8 - Mostly clear 10 - - - -
22/06:15pm 16.1 WNW 15 22 1013.2 - 2.8 Showers Mostly clear 6 - - - -
22/06:00pm 16.0 WNW 15 18 1012.8 R 2.2 Showers Mostly cloudy 9 - - - -
22/05:30pm 15.8 NW 18 27 1011.9 - 2.0 - Mostly clear 10 - - - -
22/05:00pm 15.5 NW 20 29 1011.8 - 1.8 Showers Mostly clear 5 - - - -
22/04:52pm 16.4 NW 19 27 1011.3 - 1.4 Showers Partly cloudy 6 - - - -
22/04:30pm 17.7 NW 17 24 1010.5 - 1.2 - Partly cloudy 10 - - - -
22/04:00pm 18.1 NNW 17 22 1010.2 - 1.2 - Partly cloudy 10 - - - -
22/03:30pm 18.2 N 14 19 1009.7 - 1.2 - Partly cloudy 10 - - - -
22/03:00pm 17.8 N 13 18 1009.7 R 1.2 Fine Mostly cloudy 30 - - - -
22/02:30pm 17.2 N 9 12 1009.7 - 1.2 - Mostly clear 10 - - - -
22/02:00pm 17.4 N 10 15 1009.7 - 1.2 - Partly cloudy 10 - - - -
22/01:30pm 17.4 N 11 17 1009.7 - 1.0 - Mostly clear 10 - - - -
22/01:00pm 17.6 N 11 18 1009.8 - 0.8 Rain Mostly clear 10 - - - -
22/12:35pm 17.8 N 17 21 1009.6 - 0.4 Rain Mostly clear 10 - - - -
22/12:30pm 17.8 NNW 18 25 1009.8 - 0.4 - Mostly clear 7 - - - -
22/12:25pm 17.9 NNW 20 26 1010.0 - 0.2 Rain Mostly clear 7 - - - -
22/12:12pm 19.4 NNW 19 29 1009.9 - 0.0 Rain Mostly clear 10 - - - -
22/12:00pm 20.8 NNW 21 28 1009.4 R 0.0 Rain Mostly cloudy 20 - - - -
22/11:30am 21.2 NW 19 26 1009.7 - 0.0 - Cloudy 10 - - - -
22/11:00am 20.8 NNW 13 19 1009.5 - 0.0 - Cloudy 10 - - - -
22/10:30am 22.2 NNW 14 18 1009.6 - 0.0 - Partly cloudy 10 - - - -
22/10:00am 22.7 N 16 22 1008.7 - 0.0 - Partly cloudy 10 - - - -
22/09:30am 21.9 NNE 17 22 1008.2 - 0.0 - - 10 - - - -
22/09:00am 20.9 NNE 17 23 1008.4 F 0.0 Fine Mostly cloudy 30 - - - -
22/08:30am 20.1 NNE 18 24 1008.3 - 0.0 - - 10 - - - -
22/08:00am 19.3 NNE 16 21 1008.8 - 0.0 - - 10 - - - -
22/07:30am 18.5 NNE 17 22 1009.0 - 0.0 - - 10 - - - -
22/07:00am 18.9 NNE 16 21 1008.8 - 0.0 - - 10 - - - -
22/06:30am 18.8 NNE 18 24 1008.9 - 0.0 - - 10 - - - -
22/06:00am 18.9 NNE 19 27 1009.0 F 0.0 Fine Mostly cloudy 35 - - - -
22/05:30am 18.7 NNE 17 22 1009.5 - 0.0 - - 10 - - - -
22/05:00am 18.7 NNE 17 22 1010.0 - 0.0 - - 10 - - - -
22/04:30am 18.6 NNE 17 21 1010.6 - 0.0 - - 10 - - - -
22/04:00am 18.9 NNE 17 21 1010.7 - 0.0 - - 10 - - - -
22/03:30am 19.2 NNE 16 21 1011.1 - 0.0 - - 10 - - - -
22/03:00am 19.1 NNE 16 21 1011.6 F 0.0 Fine Mostly cloudy 35 - - - -
22/02:30am 18.8 NNE 16 21 1012.2 - 0.0 - - 10 - - - -
22/02:00am 18.8 NNE 18 26 1012.3 - 0.0 - - 10 - - - -
22/01:30am 18.6 NNE 16 20 1012.4 - 0.0 - - 10 - - - -
22/01:00am 18.7 NNE 15 20 1013.1 - 0.0 - - 10 - - - -
22/12:30am 18.5 NNE 16 20 1013.3 - 0.0 - - 10 - - - -
22/12:00am 18.7 NNE 16 21 1013.4 F 0.0 Fine Mostly cloudy 35 - - - -
 
Date/Time
CST
Temp

°C
Wind Pressure Rain
since 9am
mm
Weather Cloud Vis
km
Sea
Height
m
Swell
Dir
 
Speed
knots
Gust
knots
hPa Trend Height
m
Period
s
Dir
21/11:30pm 18.9 NNE 16 20 1013.7 - 0.0 - - 10 - - - -
21/11:00pm 18.7 NNE 15 17 1013.9 - 0.0 - - 10 - - - -
21/10:30pm 18.6 NNE 13 16 1014.4 - 0.0 - - 10 - - - -
21/10:00pm 18.9 NNE 15 19 1014.6 - 0.0 - - 10 - - - -
21/09:30pm 19.3 NNE 16 22 1014.6 - 0.0 - - 10 - - - -
21/09:00pm 18.8 NNE 13 16 1014.7 F 0.0 Fine Mostly cloudy 35 - - - -
21/08:30pm 18.2 NE 10 15 1014.9 - 0.0 - - 10 - - - -
21/08:00pm 17.9 NNE 8 10 1015.1 - 0.0 - - 10 - - - -
21/07:30pm 18.2 NNE 8 10 1015.0 - 0.0 - - 10 - - - -
21/07:00pm 19.3 NNW 6 8 1014.6 - 0.0 - - 10 - - - -
21/06:30pm 18.5 NE 8 10 1014.4 - 0.0 - - 10 - - - -
21/06:00pm 19.1 N 6 7 1014.5 F 0.0 Fine Mostly clear 35 - - - -

Other Formats:

Comma delimited format used in spreadsheet applications
http://www.bom.gov.au/fwo/IDS60701/IDS60701.94672.axf

JavaScript Object Notation format (JSON) in row-major order
http://www.bom.gov.au/fwo/IDS60701/IDS60701.94672.json